createdAt,value
2022-12-15T00:01:35.384Z,-5.67
2022-12-15T00:06:55.691Z,-5.69
2022-12-15T00:12:16.927Z,-5.74
2022-12-15T00:17:37.620Z,-5.74
2022-12-15T00:22:58.030Z,-5.89
2022-12-15T00:28:18.253Z,-5.86
2022-12-15T00:33:38.667Z,-5.85
2022-12-15T00:38:41.501Z,-5.83
2022-12-15T00:43:43.432Z,-5.85
2022-12-15T00:48:50.435Z,-5.87
2022-12-15T00:54:17.758Z,-5.83
2022-12-15T00:59:38.526Z,-5.69
2022-12-15T01:04:58.667Z,-5.74
2022-12-15T01:10:19.503Z,-5.86
2022-12-15T01:15:39.914Z,-5.93
2022-12-15T01:20:41.653Z,-6.01
2022-12-15T01:25:45.466Z,-5.98
2022-12-15T01:30:51.507Z,-5.96
2022-12-15T01:36:00.083Z,-5.87
2022-12-15T01:41:03.923Z,-5.88
2022-12-15T01:46:12.094Z,-5.93
2022-12-15T01:51:24.778Z,-6.09
2022-12-15T01:56:37.064Z,-6.11
2022-12-15T02:01:40.337Z,-6.19
2022-12-15T02:06:45.042Z,-6.16
2022-12-15T02:12:01.585Z,-6.16
2022-12-15T02:17:30.828Z,-6.00
2022-12-15T02:23:10.926Z,-5.95
2022-12-15T02:28:53.204Z,-5.88
2022-12-15T02:34:04.120Z,-5.66
2022-12-15T02:39:09.256Z,-5.50
2022-12-15T02:44:22.693Z,-5.50
2022-12-15T02:49:24.927Z,-5.62
2022-12-15T02:54:53.638Z,-5.58
2022-12-15T03:00:01.709Z,-5.66
2022-12-15T03:05:03.757Z,-5.62
2022-12-15T03:10:13.674Z,-5.52
2022-12-15T03:15:19.408Z,-5.54
2022-12-15T03:20:23.203Z,-5.53
2022-12-15T03:25:27.629Z,-5.62
2022-12-15T03:30:29.452Z,-5.63
2022-12-15T03:35:40.813Z,-5.60
2022-12-15T03:40:42.660Z,-5.57
2022-12-15T03:45:44.510Z,-5.62
2022-12-15T03:50:48.197Z,-5.50
2022-12-15T03:55:50.075Z,-5.61
2022-12-15T04:00:55.835Z,-5.47
2022-12-15T04:05:59.682Z,-5.47
2022-12-15T04:11:01.421Z,-5.38
2022-12-15T04:16:06.667Z,-5.40
2022-12-15T04:21:08.339Z,-5.39
2022-12-15T04:26:28.451Z,-5.38
2022-12-15T04:31:53.163Z,-5.30
2022-12-15T04:37:13.881Z,-5.30
2022-12-15T04:42:34.854Z,-5.32
2022-12-15T04:47:55.252Z,-5.41
2022-12-15T04:53:26.230Z,-5.40
2022-12-15T04:58:46.461Z,-5.42
2022-12-15T05:04:06.818Z,-5.37
2022-12-15T05:16:14.725Z,-5.45
2022-12-15T05:21:36.101Z,-5.39
2022-12-15T05:26:58.771Z,-5.38
2022-12-15T05:32:04.182Z,-5.35
2022-12-15T05:37:07.341Z,-5.46
2022-12-15T05:42:09.351Z,-5.49
2022-12-15T05:47:11.788Z,-5.47
2022-12-15T05:52:13.581Z,-5.49
2022-12-15T05:57:15.304Z,-5.44
2022-12-15T06:02:22.028Z,-5.40
2022-12-15T06:07:23.904Z,-5.35
2022-12-15T06:12:28.839Z,-5.12
2022-12-15T06:17:36.881Z,-4.95
2022-12-15T06:22:46.565Z,-4.82
2022-12-15T06:27:51.389Z,-4.71
2022-12-15T06:32:57.850Z,-4.57
2022-12-15T06:38:02.585Z,-4.47
2022-12-15T06:43:07.638Z,-4.39
2022-12-15T06:48:18.712Z,-4.41
2022-12-15T06:53:24.292Z,-4.41
2022-12-15T06:58:25.973Z,-4.35
2022-12-15T07:03:30.915Z,-4.35
2022-12-15T07:08:41.160Z,-4.22
2022-12-15T07:13:43.498Z,-4.13
2022-12-15T07:18:45.310Z,-4.03
2022-12-15T07:23:56.786Z,-3.95
2022-12-15T07:28:59.113Z,-3.78
2022-12-15T07:34:03.480Z,-3.74
2022-12-15T07:39:10.393Z,-3.68
2022-12-15T07:44:12.285Z,-3.61
2022-12-15T07:49:17.130Z,-3.56
2022-12-15T07:54:21.296Z,-3.50
2022-12-15T07:59:27.618Z,-3.50
2022-12-15T08:04:32.218Z,-3.40
2022-12-15T08:09:36.673Z,-3.32
2022-12-15T08:14:38.353Z,-3.43
2022-12-15T08:19:40.124Z,-3.38
2022-12-15T08:24:48.135Z,-3.33
2022-12-15T08:29:53.051Z,-3.41
2022-12-15T08:35:00.132Z,-3.40
2022-12-15T08:40:04.923Z,-3.30
2022-12-15T08:45:07.365Z,-3.24
2022-12-15T08:50:09.675Z,-3.04
2022-12-15T08:55:11.606Z,-2.80
2022-12-15T09:00:16.344Z,-2.70
2022-12-15T09:05:21.389Z,-2.39
2022-12-15T09:10:23.751Z,-2.33
2022-12-15T09:15:45.344Z,-2.28
2022-12-15T09:20:50.607Z,-2.37
2022-12-15T09:26:09.612Z,-2.37
2022-12-15T09:31:22.979Z,-2.36
2022-12-15T09:36:27.708Z,-2.30
2022-12-15T09:41:33.239Z,-2.15
2022-12-15T09:46:59.754Z,-1.87
2022-12-15T09:52:10.627Z,-1.57
2022-12-15T09:57:42.622Z,-1.47
2022-12-15T10:03:22.682Z,-1.36
2022-12-15T10:08:30.363Z,-1.08
2022-12-15T10:13:46.556Z,-1.05
2022-12-15T10:19:08.952Z,-0.98
2022-12-15T10:24:31.409Z,-0.74
2022-12-15T10:29:51.315Z,-0.69
2022-12-15T10:34:55.474Z,-0.75
2022-12-15T10:39:57.251Z,-0.99
2022-12-15T10:45:02.068Z,-1.06
2022-12-15T10:50:26.073Z,-1.19
2022-12-15T10:55:50.078Z,-1.27
2022-12-15T11:01:14.803Z,-0.96
2022-12-15T11:06:25.086Z,-0.74
2022-12-15T11:11:51.139Z,-0.43
2022-12-15T11:16:59.945Z,-0.71
2022-12-15T11:22:10.968Z,-0.61
2022-12-15T11:27:21.082Z,0.17
2022-12-15T11:32:31.900Z,0.02
2022-12-15T11:37:55.542Z,0.02
2022-12-15T11:43:22.794Z,-0.12
2022-12-15T11:48:41.907Z,-0.40
2022-12-15T11:54:20.346Z,1.35
2022-12-15T11:59:31.183Z,3.49
2022-12-15T12:04:45.185Z,2.29
2022-12-15T12:10:16.439Z,2.53
2022-12-15T12:15:33.107Z,3.04
2022-12-15T12:20:45.667Z,3.20
2022-12-15T12:26:30.402Z,2.33
2022-12-15T12:32:25.172Z,2.40
2022-12-15T12:37:34.559Z,2.15
2022-12-15T12:43:13.501Z,2.47
2022-12-15T12:48:32.317Z,2.81
2022-12-15T12:53:36.595Z,3.01
2022-12-15T12:58:44.292Z,3.06
2022-12-15T13:04:06.758Z,3.07
2022-12-15T13:09:16.958Z,3.14
2022-12-15T13:14:25.885Z,3.40
2022-12-15T13:20:03.210Z,3.72
2022-12-15T13:25:26.978Z,3.68
2022-12-15T13:30:28.977Z,4.04
2022-12-15T13:35:37.723Z,4.09
2022-12-15T13:40:54.015Z,3.31
2022-12-15T13:46:02.340Z,2.84
2022-12-15T13:51:21.240Z,2.53
2022-12-15T13:57:05.098Z,2.22
2022-12-15T14:02:32.661Z,2.02
2022-12-15T14:07:34.923Z,1.89
2022-12-15T14:12:42.035Z,1.86
2022-12-15T14:17:53.904Z,1.79
2022-12-15T14:22:58.821Z,1.73
2022-12-15T14:28:05.477Z,1.70
2022-12-15T14:33:14.521Z,1.65
2022-12-15T14:38:23.967Z,1.60
2022-12-15T14:43:35.388Z,1.55
2022-12-15T14:48:41.861Z,1.51
2022-12-15T14:53:49.053Z,1.49
2022-12-15T14:59:18.590Z,1.39
2022-12-15T15:04:26.193Z,1.27
2022-12-15T15:09:31.119Z,1.22
2022-12-15T15:14:38.885Z,1.20
2022-12-15T15:19:48.038Z,1.15
2022-12-15T15:24:51.350Z,1.13
2022-12-15T15:30:15.209Z,1.09
2022-12-15T15:35:17.456Z,1.05
2022-12-15T15:40:21.494Z,1.03
2022-12-15T15:45:25.456Z,1.01
2022-12-15T15:50:30.950Z,0.99
2022-12-15T15:55:39.879Z,0.92
2022-12-15T16:00:46.807Z,0.79
2022-12-15T16:05:51.015Z,0.78
2022-12-15T16:10:53.022Z,0.72
2022-12-15T16:15:54.877Z,0.66
2022-12-15T16:20:58.729Z,0.60
2022-12-15T16:26:03.703Z,0.48
2022-12-15T16:31:05.675Z,0.47
2022-12-15T16:36:15.792Z,0.38
2022-12-15T16:41:23.288Z,0.27
2022-12-15T16:46:29.878Z,0.34
2022-12-15T16:51:39.042Z,0.10
2022-12-15T16:56:42.529Z,-0.11
2022-12-15T17:01:44.856Z,-0.28
2022-12-15T17:06:49.750Z,-0.34
2022-12-15T17:11:52.102Z,-0.41
2022-12-15T17:16:54.928Z,-0.36
2022-12-15T17:22:01.756Z,-0.33
2022-12-15T17:27:05.143Z,-0.12
2022-12-15T17:32:11.370Z,-0.27
2022-12-15T17:37:16.173Z,-0.31
2022-12-15T17:42:19.650Z,-0.26
2022-12-15T17:47:25.390Z,-0.23
2022-12-15T17:52:30.280Z,-0.21
2022-12-15T17:57:37.075Z,-0.16
2022-12-15T18:02:39.900Z,-0.24
2022-12-15T18:08:00.800Z,-0.30
2022-12-15T18:13:21.083Z,-0.41
2022-12-15T18:18:25.917Z,-0.44
2022-12-15T18:23:31.147Z,-0.51
2022-12-15T18:28:37.506Z,-0.64
2022-12-15T18:33:39.255Z,-0.79
2022-12-15T18:38:45.885Z,-0.87
2022-12-15T18:43:48.618Z,-0.55
2022-12-15T18:48:50.370Z,-0.76
2022-12-15T18:53:52.053Z,-0.98
2022-12-15T18:58:53.764Z,-0.99
2022-12-15T19:03:55.530Z,-0.89
2022-12-15T19:08:59.266Z,-0.69
2022-12-15T19:14:04.109Z,-0.63
2022-12-15T19:19:24.390Z,-0.64
2022-12-15T19:24:49.821Z,-0.63
2022-12-15T19:29:52.635Z,-0.63
2022-12-15T19:34:55.302Z,-0.67
2022-12-15T19:40:01.108Z,-0.73
2022-12-15T19:45:19.498Z,-0.67
2022-12-15T19:50:26.725Z,-0.60
2022-12-15T19:55:32.728Z,-0.58
2022-12-15T20:00:36.806Z,-0.56
2022-12-15T20:05:41.398Z,-0.57
2022-12-15T20:10:43.204Z,-0.61
2022-12-15T20:15:45.606Z,-0.69
2022-12-15T20:20:48.260Z,-0.73
2022-12-15T20:25:49.998Z,-0.84
2022-12-15T20:30:58.260Z,-0.97
2022-12-15T20:36:01.050Z,-0.98
2022-12-15T20:41:05.983Z,-0.97
2022-12-15T20:46:18.566Z,-0.94
2022-12-15T20:51:20.659Z,-0.69
2022-12-15T20:56:23.293Z,-0.82
2022-12-15T21:01:26.005Z,-0.93
2022-12-15T21:06:28.518Z,-0.97
2022-12-15T21:11:33.455Z,-0.95
2022-12-15T21:16:40.049Z,-0.91
2022-12-15T21:21:49.298Z,-0.86
2022-12-15T21:26:54.828Z,-0.82
2022-12-15T21:31:59.143Z,-0.76
2022-12-15T21:37:02.868Z,-0.71
2022-12-15T21:42:11.533Z,-0.72
2022-12-15T21:47:49.031Z,-0.78
2022-12-15T21:52:50.746Z,-0.77
2022-12-15T21:57:54.137Z,-0.71
2022-12-15T22:02:58.734Z,-0.65
2022-12-15T22:08:23.255Z,-0.61
2022-12-15T22:13:24.912Z,-0.61
2022-12-15T22:18:27.441Z,-0.58
2022-12-15T22:23:29.095Z,-0.60
2022-12-15T22:28:31.946Z,-0.59
2022-12-15T22:33:34.901Z,-0.60
2022-12-15T22:38:36.633Z,-0.56
2022-12-15T22:43:40.954Z,-0.57
2022-12-15T22:48:45.491Z,-0.59
2022-12-15T22:53:47.360Z,-0.57
2022-12-15T22:58:55.006Z,-0.56
2022-12-15T23:03:56.788Z,-0.58
2022-12-15T23:09:00.756Z,-0.59
2022-12-15T23:14:06.349Z,-0.59
2022-12-15T23:19:23.937Z,-0.57
2022-12-15T23:24:26.814Z,-0.56
2022-12-15T23:29:33.029Z,-0.54
2022-12-15T23:34:34.750Z,-0.54
2022-12-15T23:39:38.679Z,-0.54
2022-12-15T23:44:41.267Z,-0.52
2022-12-15T23:49:42.958Z,-0.49
2022-12-15T23:54:47.317Z,-0.50
2022-12-15T23:59:50.009Z,-0.51
